Time;durP1;ratioP1;P1;durP2;ratioP2;P2;SDS_P1;SDS_P2;PMS_P1;PMS_P2;Temp;Humidity;BMP_temperature;BMP_pressure;BME280_temperature;BME280_humidity;BME280_pressure;Samples;Min_cycle;Max_cycle;Signal;HPM_P1;HPM_P2
2023/08/17 00:00:30;;;;;;;;;;;;;;;24.68;45.94;99631.25;3137586;28;19925;-71
2023/08/17 00:02:01;;;;;;;;;;;;;;;24.67;46.15;99634.91;3133812;28;20318;-71
2023/08/17 00:03:33;;;;;;;;;;;;;;;24.67;46.11;99634.09;3145034;28;19926;-71
2023/08/17 00:05:03;;;;;;;;;;;;;;;24.64;45.86;99623.75;3145802;28;19924;-71
2023/08/17 00:06:36;;;;;;;;;;;;;;;24.63;46.24;99630.91;3145963;28;19920;-71
2023/08/17 00:08:07;;;;;;;;;;;;;;;24.61;46.41;99632.91;3146070;28;19920;-71
2023/08/17 00:09:39;;;;;;;;;;;;;;;24.59;46.01;99634.06;3145718;28;20483;-71
2023/08/17 00:11:10;;;;;;;;;;;;;;;24.57;46.00;99633.38;3140939;28;19931;-71
2023/08/17 00:12:41;;;;;;;;;;;;;;;24.55;46.34;99630.03;3145862;28;19924;-71
2023/08/17 00:14:12;;;;;;;;;;;;;;;24.53;46.31;99627.56;3145738;28;19920;-71
2023/08/17 00:15:45;;;;;;;;;;;;;;;24.50;46.52;99631.38;3145526;28;19943;-71
2023/08/17 00:17:15;;;;;;;;;;;;;;;24.48;46.26;99629.88;3145813;28;19924;-71
2023/08/17 00:18:48;;;;;;;;;;;;;;;24.47;46.20;99633.53;3145772;28;20054;-71
2023/08/17 00:20:19;;;;;;;;;;;;;;;24.46;46.33;99632.72;3145474;28;19924;-71
2023/08/17 00:21:52;;;;;;;;;;;;;;;24.45;46.73;99632.88;3145438;28;20007;-71
2023/08/17 00:23:22;;;;;;;;;;;;;;;24.43;46.86;99634.84;3145447;28;19921;-71
2023/08/17 00:24:54;;;;;;;;;;;;;;;24.39;46.86;99634.31;3141505;28;19932;-71
2023/08/17 00:26:26;;;;;;;;;;;;;;;24.37;46.94;99630.13;3145806;28;19931;-71
2023/08/17 00:27:56;;;;;;;;;;;;;;;24.34;46.88;99633.94;3145745;28;19924;-71
2023/08/17 00:29:28;;;;;;;;;;;;;;;24.32;47.00;99632.47;3145819;28;19920;-71
2023/08/17 00:31:00;;;;;;;;;;;;;;;24.32;46.99;99632.47;3145822;28;19931;-71
2023/08/17 00:32:31;;;;;;;;;;;;;;;24.32;46.96;99629.81;3145206;28;19927;-71
2023/08/17 00:34:02;;;;;;;;;;;;;;;24.29;47.04;99630.97;3145471;28;19921;-71
2023/08/17 00:35:33;;;;;;;;;;;;;;;24.27;47.11;99630.28;3145701;28;19946;-71
2023/08/17 00:37:06;;;;;;;;;;;;;;;24.24;46.90;99620.78;3143629;28;20460;-71
2023/08/17 00:38:36;;;;;;;;;;;;;;;24.23;46.86;99620.97;3140613;28;19924;-71
2023/08/17 00:40:08;;;;;;;;;;;;;;;24.21;46.90;99623.78;3141686;28;19921;-71
2023/08/17 00:41:39;;;;;;;;;;;;;;;24.18;47.13;99618.78;3141903;28;19920;-71
2023/08/17 00:43:11;;;;;;;;;;;;;;;24.18;47.29;99621.44;3143598;28;20382;-71
2023/08/17 00:44:41;;;;;;;;;;;;;;;24.17;47.11;99619.78;3136156;28;19925;-71
2023/08/17 00:46:13;;;;;;;;;;;;;;;24.16;47.19;99623.41;3145389;28;20064;-71
2023/08/17 00:47:44;;;;;;;;;;;;;;;24.14;47.25;99625.44;3145630;28;20416;-71
2023/08/17 00:49:16;;;;;;;;;;;;;;;24.14;47.15;99630.75;3137843;28;19924;-71
2023/08/17 00:50:47;;;;;;;;;;;;;;;24.11;47.26;99631.06;3145340;28;19920;-71
2023/08/17 00:52:20;;;;;;;;;;;;;;;24.08;47.56;99623.41;3145548;28;20441;-71
2023/08/17 00:53:52;;;;;;;;;;;;;;;24.02;47.38;99632.88;3141541;28;20425;-71
2023/08/17 00:55:24;;;;;;;;;;;;;;;24.01;47.74;99635.66;3144338;28;19924;-71
2023/08/17 00:56:55;;;;;;;;;;;;;;;23.97;47.82;99631.69;3135835;28;19921;-71
2023/08/17 00:58:27;;;;;;;;;;;;;;;23.93;47.82;99636.50;3143350;28;19920;-71
2023/08/17 00:59:59;;;;;;;;;;;;;;;23.88;48.00;99637.94;3145407;28;19920;-71
2023/08/17 01:01:30;;;;;;;;;;;;;;;23.85;48.10;99636.44;3136909;28;19932;-71
2023/08/17 01:03:01;;;;;;;;;;;;;;;23.82;47.99;99637.59;3140406;28;19920;-71
2023/08/17 01:04:32;;;;;;;;;;;;;;;23.81;48.16;99635.94;3145201;28;20313;-71
2023/08/17 01:06:03;;;;;;;;;;;;;;;23.79;48.07;99632.59;3145167;28;19920;-71
2023/08/17 01:07:37;;;;;;;;;;;;;;;23.77;47.98;99639.06;3144977;28;19986;-70
2023/08/17 01:09:09;;;;;;;;;;;;;;;23.72;48.21;99636.03;3140599;28;19920;-71
2023/08/17 01:10:45;;;;;;;;;;;;;;;23.71;47.95;99645.00;3143837;28;19997;-71
2023/08/17 01:12:20;;;;;;;;;;;;;;;23.69;47.85;99642.44;3145155;28;19939;-71
2023/08/17 01:13:53;;;;;;;;;;;;;;;23.70;48.10;99643.34;3145340;28;19927;-71
2023/08/17 01:15:29;;;;;;;;;;;;;;;23.72;47.89;99639.53;3145105;28;19924;-71
2023/08/17 01:17:03;;;;;;;;;;;;;;;23.73;47.99;99633.22;3145631;28;19999;-71
2023/08/17 01:18:36;;;;;;;;;;;;;;;23.75;47.93;99627.72;3145354;28;19927;-71
2023/08/17 01:20:09;;;;;;;;;;;;;;;23.74;47.88;99629.56;3144895;28;20338;-71
2023/08/17 01:21:42;;;;;;;;;;;;;;;23.74;47.87;99621.59;3145172;28;19924;-71
2023/08/17 01:23:14;;;;;;;;;;;;;;;23.74;48.09;99628.72;3141900;28;20390;-71
2023/08/17 01:24:46;;;;;;;;;;;;;;;23.70;48.14;99628.22;3145242;28;19946;-71
2023/08/17 01:26:17;;;;;;;;;;;;;;;23.70;48.15;99630.88;3145193;28;19977;-71
2023/08/17 01:27:48;;;;;;;;;;;;;;;23.68;48.00;99618.69;3144716;28;20312;-71
2023/08/17 01:29:19;;;;;;;;;;;;;;;23.66;48.06;99626.00;3144554;28;19920;-71
2023/08/17 01:30:54;;;;;;;;;;;;;;;23.64;48.19;99623.50;3145204;28;19975;-72
2023/08/17 01:32:29;;;;;;;;;;;;;;;23.62;48.35;99628.97;3144923;28;20305;-72
2023/08/17 01:34:04;;;;;;;;;;;;;;;23.61;48.14;99637.13;3144588;28;19953;-71
2023/08/17 01:35:39;;;;;;;;;;;;;;;23.59;48.32;99626.63;3144980;28;19924;-71
2023/08/17 01:37:11;;;;;;;;;;;;;;;23.60;48.14;99627.44;3142311;28;19928;-71
2023/08/17 01:38:44;;;;;;;;;;;;;;;23.58;48.22;99635.59;3144433;28;19924;-71
2023/08/17 01:40:16;;;;;;;;;;;;;;;23.58;48.15;99637.44;3145199;28;19931;-72
2023/08/17 01:41:47;;;;;;;;;;;;;;;23.57;48.35;99628.63;3141497;28;19998;-72
2023/08/17 01:43:19;;;;;;;;;;;;;;;23.56;48.23;99629.59;3141458;28;19920;-72
2023/08/17 01:44:49;;;;;;;;;;;;;;;23.55;48.31;99627.94;3135974;28;20005;-72
2023/08/17 01:46:21;;;;;;;;;;;;;;;23.56;48.41;99632.25;3138454;28;20007;-72
2023/08/17 01:47:52;;;;;;;;;;;;;;;23.55;48.53;99630.59;3147361;28;19928;-71
2023/08/17 01:49:24;;;;;;;;;;;;;;;23.52;48.35;99630.91;3147462;28;20309;-72
2023/08/17 01:50:54;;;;;;;;;;;;;;;23.48;48.49;99628.72;3146610;28;19924;-71
2023/08/17 01:52:27;;;;;;;;;;;;;;;23.39;48.85;99628.66;3143930;28;20442;-71
2023/08/17 01:53:59;;;;;;;;;;;;;;;23.30;48.95;99629.59;3147404;28;20004;-72
2023/08/17 01:55:30;;;;;;;;;;;;;;;23.24;49.39;99626.72;3146900;28;19946;-71
2023/08/17 01:57:02;;;;;;;;;;;;;;;23.17;49.33;99632.66;3146871;28;19920;-71
2023/08/17 01:58:33;;;;;;;;;;;;;;;23.14;49.25;99629.47;3147264;28;19921;-72
2023/08/17 02:00:05;;;;;;;;;;;;;;;23.10;49.52;99631.63;3147083;28;19921;-71
2023/08/17 02:01:36;;;;;;;;;;;;;;;23.05;49.60;99631.22;3146649;28;20039;-72
2023/08/17 02:03:07;;;;;;;;;;;;;;;22.99;49.75;99629.19;3147373;28;19920;-72
2023/08/17 02:04:38;;;;;;;;;;;;;;;22.90;50.07;99622.94;3147373;28;19921;-71
2023/08/17 02:06:09;;;;;;;;;;;;;;;22.86;50.13;99621.56;3146695;28;19921;-72
2023/08/17 02:07:40;;;;;;;;;;;;;;;22.85;50.33;99627.88;3147014;28;20053;-72
2023/08/17 02:09:12;;;;;;;;;;;;;;;22.82;50.17;99622.88;3146779;28;20525;-72
2023/08/17 02:10:44;;;;;;;;;;;;;;;22.80;50.52;99626.66;3145006;28;19924;-72
2023/08/17 02:12:14;;;;;;;;;;;;;;;22.78;50.58;99623.34;3144796;28;19924;-71
2023/08/17 02:13:46;;;;;;;;;;;;;;;22.71;50.74;99618.59;3141739;28;19924;-71
2023/08/17 02:15:17;;;;;;;;;;;;;;;22.66;50.97;99625.38;3141239;28;19931;-71
2023/08/17 02:16:48;;;;;;;;;;;;;;;22.64;51.02;99624.69;3141247;28;19924;-71
2023/08/17 02:18:19;;;;;;;;;;;;;;;22.62;50.96;99622.19;3141922;28;19930;-71
2023/08/17 02:19:51;;;;;;;;;;;;;;;22.61;51.09;99619.69;3141240;28;20021;-71
2023/08/17 02:21:21;;;;;;;;;;;;;;;22.62;51.13;99626.66;3141635;28;19928;-71
2023/08/17 02:22:53;;;;;;;;;;;;;;;22.60;51.11;99624.16;3141361;28;20028;-71
2023/08/17 02:24:26;;;;;;;;;;;;;;;22.57;51.13;99613.84;3141351;28;20002;-72
2023/08/17 02:25:57;;;;;;;;;;;;;;;22.56;51.04;99616.63;3141891;28;19975;-71
2023/08/17 02:27:30;;;;;;;;;;;;;;;22.56;51.30;99621.94;3141837;28;20034;-71
2023/08/17 02:29:01;;;;;;;;;;;;;;;22.55;51.15;99620.28;3141672;28;20476;-71
2023/08/17 02:30:33;;;;;;;;;;;;;;;22.55;51.34;99613.16;3141969;28;19924;-72
2023/08/17 02:32:04;;;;;;;;;;;;;;;22.57;51.21;99620.94;3141880;28;19928;-71
2023/08/17 02:33:36;;;;;;;;;;;;;;;22.57;51.20;99618.31;3141584;28;19924;-71
2023/08/17 02:35:07;;;;;;;;;;;;;;;22.55;51.34;99620.28;3137297;28;19963;-71
2023/08/17 02:36:39;;;;;;;;;;;;;;;22.49;51.65;99617.25;3132705;28;20019;-71
2023/08/17 02:38:10;;;;;;;;;;;;;;;22.46;51.85;99612.25;3133412;28;19935;-71
2023/08/17 02:39:43;;;;;;;;;;;;;;;22.45;51.78;99618.53;3141612;28;20071;-71
2023/08/17 02:41:14;;;;;;;;;;;;;;;22.43;51.73;99615.19;3137438;28;19924;-71
2023/08/17 02:42:45;;;;;;;;;;;;;;;22.42;51.86;99616.19;3141430;28;20317;-71
2023/08/17 02:44:16;;;;;;;;;;;;;;;22.41;52.03;99616.31;3130719;28;19924;-72
2023/08/17 02:45:47;;;;;;;;;;;;;;;22.34;52.64;99612.63;3141278;28;19981;-71
2023/08/17 02:47:19;;;;;;;;;;;;;;;22.26;52.71;99618.66;3141562;28;20705;-71
2023/08/17 02:48:50;;;;;;;;;;;;;;;22.21;52.89;99619.13;3136852;28;19929;-71
2023/08/17 02:50:22;;;;;;;;;;;;;;;22.14;53.17;99620.63;3137965;28;19931;-72
2023/08/17 02:51:52;;;;;;;;;;;;;;;22.10;53.29;99619.28;3138125;28;19931;-71
2023/08/17 02:53:24;;;;;;;;;;;;;;;22.04;53.72;99620.69;3141437;28;19925;-71
2023/08/17 02:54:57;;;;;;;;;;;;;;;22.01;53.49;99621.00;3141519;28;19947;-71
2023/08/17 02:56:27;;;;;;;;;;;;;;;22.00;53.67;99618.47;3141427;28;20419;-71
2023/08/17 02:57:59;;;;;;;;;;;;;;;21.98;53.45;99621.28;3141663;28;20033;-71
2023/08/17 02:59:30;;;;;;;;;;;;;;;21.99;53.70;99616.81;3141416;28;19975;-71
2023/08/17 03:01:03;;;;;;;;;;;;;;;21.99;53.33;99617.63;3137558;28;19924;-73
2023/08/17 03:02:34;;;;;;;;;;;;;;;22.00;53.54;99615.81;3133244;28;20572;-71
2023/08/17 03:04:06;;;;;;;;;;;;;;;21.97;53.57;99618.75;3141316;28;19976;-71
2023/08/17 03:05:36;;;;;;;;;;;;;;;21.97;53.57;99618.75;3138018;28;19925;-71
2023/08/17 03:07:08;;;;;;;;;;;;;;;21.96;53.46;99622.41;3141192;28;20059;-71
2023/08/17 03:08:40;;;;;;;;;;;;;;;21.93;53.50;99612.09;3141353;28;19982;-70
2023/08/17 03:10:12;;;;;;;;;;;;;;;21.90;53.53;99615.88;3140650;28;19925;-71
2023/08/17 03:11:43;;;;;;;;;;;;;;;21.89;53.46;99614.22;3141656;28;19931;-71
2023/08/17 03:13:15;;;;;;;;;;;;;;;21.89;53.24;99621.31;3141393;28;19935;-71
2023/08/17 03:14:46;;;;;;;;;;;;;;;21.86;53.36;99619.81;3141129;28;19947;-71
2023/08/17 03:16:17;;;;;;;;;;;;;;;21.86;53.32;99617.16;3141368;28;19936;-71
2023/08/17 03:17:48;;;;;;;;;;;;;;;21.86;53.31;99618.94;3141603;28;19924;-71
2023/08/17 03:19:19;;;;;;;;;;;;;;;21.87;53.26;99615.34;3141139;28;20033;-71
2023/08/17 03:20:50;;;;;;;;;;;;;;;21.88;53.14;99617.81;3137003;28;19928;-71
2023/08/17 03:22:22;;;;;;;;;;;;;;;21.89;52.71;99614.22;3141356;28;19963;-71
2023/08/17 03:23:52;;;;;;;;;;;;;;;21.91;52.68;99622.00;3141384;28;20009;-71
2023/08/17 03:25:26;;;;;;;;;;;;;;;21.93;52.70;99628.84;3141310;28;20367;-71
2023/08/17 03:26:56;;;;;;;;;;;;;;;21.95;52.52;99623.41;3140976;28;20392;-71
2023/08/17 03:28:28;;;;;;;;;;;;;;;21.96;52.62;99619.75;3141084;28;20003;-72
2023/08/17 03:29:58;;;;;;;;;;;;;;;21.97;52.59;99626.72;3140756;28;19928;-72
2023/08/17 03:31:30;;;;;;;;;;;;;;;21.97;52.36;99624.91;3140984;28;19983;-72
2023/08/17 03:33:01;;;;;;;;;;;;;;;21.97;52.52;99624.91;3141283;28;19928;-72
2023/08/17 03:34:33;;;;;;;;;;;;;;;21.95;52.45;99626.06;3136892;28;19932;-72
2023/08/17 03:36:03;;;;;;;;;;;;;;;21.93;52.49;99626.19;3141082;28;19986;-72
2023/08/17 03:37:35;;;;;;;;;;;;;;;21.91;52.49;99622.84;3134840;28;19928;-72
2023/08/17 03:39:06;;;;;;;;;;;;;;;21.94;52.35;99629.66;3140779;28;19924;-73
2023/08/17 03:40:39;;;;;;;;;;;;;;;21.95;52.13;99632.19;3140897;28;19924;-72
2023/08/17 03:42:09;;;;;;;;;;;;;;;21.97;52.14;99627.56;3139250;28;19924;-72
2023/08/17 03:43:41;;;;;;;;;;;;;;;22.01;52.19;99630.78;3134583;28;19931;-72
2023/08/17 03:45:11;;;;;;;;;;;;;;;22.04;51.82;99635.78;3130130;28;20402;-72
2023/08/17 03:46:43;;;;;;;;;;;;;;;22.04;51.99;99630.47;3128829;28;19924;-72
2023/08/17 03:48:14;;;;;;;;;;;;;;;22.07;51.90;99640.78;3134188;28;19925;-72
2023/08/17 03:49:46;;;;;;;;;;;;;;;22.09;51.75;99636.16;3135381;28;19931;-72
2023/08/17 03:51:17;;;;;;;;;;;;;;;22.10;51.58;99639.66;3141392;28;19925;-72
2023/08/17 03:52:48;;;;;;;;;;;;;;;22.10;51.49;99637.00;3140739;28;19928;-72
2023/08/17 03:54:19;;;;;;;;;;;;;;;22.07;51.98;99642.59;3140903;28;19979;-73
2023/08/17 03:55:52;;;;;;;;;;;;;;;22.01;51.95;99638.72;3140846;28;20066;-72
2023/08/17 03:57:23;;;;;;;;;;;;;;;21.95;52.34;99636.66;3141153;28;20176;-73
2023/08/17 03:58:54;;;;;;;;;;;;;;;21.88;52.58;99641.69;3141111;28;20472;-73
2023/08/17 04:00:25;;;;;;;;;;;;;;;21.82;52.72;99636.97;3141096;28;20011;-73
2023/08/17 04:01:57;;;;;;;;;;;;;;;21.79;52.87;99639.91;3128996;28;19925;-73
2023/08/17 04:03:27;;;;;;;;;;;;;;;21.80;52.81;99646.91;3138205;28;19982;-73
2023/08/17 04:04:59;;;;;;;;;;;;;;;21.80;52.69;99641.59;3138801;28;19998;-73
2023/08/17 04:06:30;;;;;;;;;;;;;;;21.77;52.89;99636.59;3140572;28;19924;-73
2023/08/17 04:08:02;;;;;;;;;;;;;;;21.74;52.95;99636.84;3140895;28;19928;-73
2023/08/17 04:09:33;;;;;;;;;;;;;;;21.75;52.88;99641.19;3140804;28;20038;-73
2023/08/17 04:11:07;;;;;;;;;;;;;;;21.77;52.87;99641.88;3139317;28;19982;-73
2023/08/17 04:12:37;;;;;;;;;;;;;;;21.79;52.68;99646.03;3140605;28;20328;-73
2023/08/17 04:14:09;;;;;;;;;;;;;;;21.83;52.78;99643.97;3141209;28;19924;-73
2023/08/17 04:15:40;;;;;;;;;;;;;;;21.84;52.88;99645.63;3140468;28;19926;-73
2023/08/17 04:17:12;;;;;;;;;;;;;;;21.86;52.65;99642.81;3137005;28;19924;-73
2023/08/17 04:18:43;;;;;;;;;;;;;;;21.88;52.54;99644.34;3131418;28;19924;-73
2023/08/17 04:20:14;;;;;;;;;;;;;;;21.91;52.84;99653.81;3140686;28;20074;-73
2023/08/17 04:21:45;;;;;;;;;;;;;;;21.92;52.69;99645.75;3140793;28;19944;-72
2023/08/17 04:23:17;;;;;;;;;;;;;;;21.94;52.45;99633.16;3141771;28;20438;-73
2023/08/17 04:24:47;;;;;;;;;;;;;;;21.94;52.60;99638.44;3153524;28;19977;-73
2023/08/17 04:26:20;;;;;;;;;;;;;;;21.96;52.31;99647.09;3148562;28;19924;-70
2023/08/17 04:27:51;;;;;;;;;;;;;;;22.00;52.23;99642.34;3152938;28;19931;-73
2023/08/17 04:29:22;;;;;;;;;;;;;;;22.00;52.17;99645.81;3153450;28;20015;-73
2023/08/17 04:30:53;;;;;;;;;;;;;;;22.01;51.93;99647.50;3153428;28;19924;-73
2023/08/17 04:32:25;;;;;;;;;;;;;;;22.01;52.19;99641.38;3153307;28;19924;-73
2023/08/17 04:33:56;;;;;;;;;;;;;;;22.00;52.00;99643.16;3143639;28;19924;-73
2023/08/17 04:35:27;;;;;;;;;;;;;;;22.01;51.91;99644.84;3148767;28;20415;-73
2023/08/17 04:36:58;;;;;;;;;;;;;;;22.01;52.01;99636.91;3151785;28;19923;-73
2023/08/17 04:38:30;;;;;;;;;;;;;;;22.02;52.08;99637.72;3146994;28;19923;-73
2023/08/17 04:40:01;;;;;;;;;;;;;;;22.04;51.67;99641.91;3152951;28;19934;-73
2023/08/17 04:41:34;;;;;;;;;;;;;;;22.06;52.08;99648.88;3148912;28;19994;-73
2023/08/17 04:43:04;;;;;;;;;;;;;;;22.08;51.73;99644.25;3151895;28;20400;-73
2023/08/17 04:44:36;;;;;;;;;;;;;;;22.07;51.90;99642.59;3142528;28;19928;-73
2023/08/17 04:46:06;;;;;;;;;;;;;;;22.08;51.67;99644.25;3153186;28;19924;-73
2023/08/17 04:47:38;;;;;;;;;;;;;;;22.08;51.97;99655.69;3153174;28;19923;-73
2023/08/17 04:49:08;;;;;;;;;;;;;;;22.07;51.85;99648.75;3152788;28;19923;-73
2023/08/17 04:50:40;;;;;;;;;;;;;;;22.10;51.74;99648.44;3128302;28;20457;-73
2023/08/17 04:52:12;;;;;;;;;;;;;;;22.13;51.65;99650.81;3151885;28;20051;-73
2023/08/17 04:53:42;;;;;;;;;;;;;;;22.16;51.72;99645.22;3152891;28;19928;-73
2023/08/17 04:55:14;;;;;;;;;;;;;;;22.17;52.04;99649.53;3152910;28;19982;-73
2023/08/17 04:56:46;;;;;;;;;;;;;;;22.19;51.83;99652.06;3152448;28;19999;-72
2023/08/17 04:58:18;;;;;;;;;;;;;;;22.19;51.83;99650.25;3152903;28;20417;-73
2023/08/17 04:59:48;;;;;;;;;;;;;;;22.17;52.34;99651.38;3152945;28;19924;-73
2023/08/17 05:01:20;;;;;;;;;;;;;;;22.13;52.45;99658.75;3152635;28;20592;-73
2023/08/17 05:02:51;;;;;;;;;;;;;;;22.11;52.55;99650.09;3148318;28;20004;-73
2023/08/17 05:04:22;;;;;;;;;;;;;;;22.09;52.64;99657.38;3152888;28;19924;-73
2023/08/17 05:05:54;;;;;;;;;;;;;;;22.09;52.80;99656.53;3153012;28;19988;-73
2023/08/17 05:07:24;;;;;;;;;;;;;;;22.11;52.86;99658.06;3153011;28;20416;-73
2023/08/17 05:08:56;;;;;;;;;;;;;;;22.13;52.63;99647.31;3152442;28;19932;-73
2023/08/17 05:10:26;;;;;;;;;;;;;;;22.17;52.56;99657.50;3150647;28;19931;-72
2023/08/17 05:11:59;;;;;;;;;;;;;;;22.21;52.74;99652.72;3153062;28;19923;-73
2023/08/17 05:13:30;;;;;;;;;;;;;;;22.24;52.71;99649.78;3151876;28;20375;-73
2023/08/17 05:15:02;;;;;;;;;;;;;;;22.25;52.75;99654.97;3153127;28;19924;-73
2023/08/17 05:16:32;;;;;;;;;;;;;;;22.25;52.80;99656.78;3149969;28;20289;-73
2023/08/17 05:18:04;;;;;;;;;;;;;;;22.26;52.70;99648.66;3151586;28;19935;-72
2023/08/17 05:19:38;;;;;;;;;;;;;;;22.28;53.02;99651.19;3154191;28;19924;-73
2023/08/17 05:21:08;;;;;;;;;;;;;;;22.33;52.80;99650.72;3155407;28;19931;-73
2023/08/17 05:22:40;;;;;;;;;;;;;;;22.39;52.97;99652.78;3150121;28;20386;-70
2023/08/17 05:24:10;;;;;;;;;;;;;;;22.46;52.76;99653.88;3151194;28;19980;-73
2023/08/17 05:25:42;;;;;;;;;;;;;;;22.55;52.70;99654.78;3155279;28;20457;-71
2023/08/17 05:27:14;;;;;;;;;;;;;;;22.65;52.42;99653.72;3154782;28;19924;-70
2023/08/17 05:28:46;;;;;;;;;;;;;;;22.75;52.25;99653.69;3155335;28;19923;-71
2023/08/17 05:30:16;;;;;;;;;;;;;;;22.84;52.05;99652.75;3153726;28;19931;-71
2023/08/17 05:31:48;;;;;;;;;;;;;;;22.92;51.91;99652.84;3150795;28;19924;-71
2023/08/17 05:33:18;;;;;;;;;;;;;;;23.04;52.01;99644.66;3155566;28;19924;-72
2023/08/17 05:34:50;;;;;;;;;;;;;;;23.15;52.08;99655.03;3154891;28;20019;-72
2023/08/17 05:36:20;;;;;;;;;;;;;;;23.26;51.81;99654.81;3155183;28;19928;-71
2023/08/17 05:37:52;;;;;;;;;;;;;;;23.43;51.59;99649.63;3147102;28;20087;-71
2023/08/17 05:39:23;;;;;;;;;;;;;;;23.62;51.80;99644.91;3155593;28;19924;-71
2023/08/17 05:40:58;;;;;;;;;;;;;;;23.87;51.71;99646.91;3152077;28;20159;-71
2023/08/17 05:42:31;;;;;;;;;;;;;;;24.26;50.71;99649.91;3154534;28;19953;-71
2023/08/17 05:44:02;;;;;;;;;;;;;;;24.93;49.45;99648.06;3145525;28;19928;-71
2023/08/17 05:45:36;;;;;;;;;;;;;;;25.87;47.67;99644.03;3152751;28;20429;-72
2023/08/17 05:47:07;;;;;;;;;;;;;;;27.00;45.73;99650.78;3155248;28;19936;-71
2023/08/17 05:48:39;;;;;;;;;;;;;;;27.72;43.56;99650.31;3155096;28;20407;-72
2023/08/17 05:50:09;;;;;;;;;;;;;;;28.25;42.36;99643.03;3155242;28;19924;-71
2023/08/17 05:51:41;;;;;;;;;;;;;;;28.56;41.07;99644.63;3154968;28;19923;-71
2023/08/17 05:53:12;;;;;;;;;;;;;;;28.85;40.85;99645.53;3154973;28;19981;-72
2023/08/17 05:54:43;;;;;;;;;;;;;;;29.07;40.54;99644.53;3154875;28;20081;-72
2023/08/17 05:56:14;;;;;;;;;;;;;;;29.02;40.30;99646.97;3152139;28;19947;-72
2023/08/17 05:57:47;;;;;;;;;;;;;;;28.65;40.88;99643.47;3146037;28;20107;-72
2023/08/17 05:59:17;;;;;;;;;;;;;;;28.23;41.67;99639.69;3154314;28;20439;-72
2023/08/17 06:00:49;;;;;;;;;;;;;;;27.80;42.50;99639.53;3147982;28;19932;-71
2023/08/17 06:02:20;;;;;;;;;;;;;;;27.55;43.23;99640.81;3144166;28;20009;-71
2023/08/17 06:03:51;;;;;;;;;;;;;;;27.34;43.40;99638.84;3154511;28;19924;-72
2023/08/17 06:05:25;;;;;;;;;;;;;;;27.09;43.76;99640.84;3154797;28;19990;-72
2023/08/17 06:06:56;;;;;;;;;;;;;;;26.82;44.72;99643.06;3130050;28;19925;-71
2023/08/17 06:08:27;;;;;;;;;;;;;;;26.61;45.31;99633.03;3153781;28;20461;-72
2023/08/17 06:09:59;;;;;;;;;;;;;;;26.47;45.56;99639.06;3154898;28;20077;-71
2023/08/17 06:11:30;;;;;;;;;;;;;;;26.36;46.13;99636.84;3152962;28;19946;-71
2023/08/17 06:13:03;;;;;;;;;;;;;;;26.29;46.44;99632.16;3154632;28;20444;-71
2023/08/17 06:14:35;;;;;;;;;;;;;;;26.30;46.11;99638.34;3154604;28;19982;-71
2023/08/17 06:16:05;;;;;;;;;;;;;;;26.26;46.62;99640.53;3150501;28;19924;-71
2023/08/17 06:17:37;;;;;;;;;;;;;;;26.21;46.58;99636.75;3154340;28;20034;-72
2023/08/17 06:19:07;;;;;;;;;;;;;;;26.17;46.70;99636.22;3154234;28;19924;-71
2023/08/17 06:20:39;;;;;;;;;;;;;;;26.22;46.41;99630.38;3154306;28;20153;-72
2023/08/17 06:22:10;;;;;;;;;;;;;;;26.25;46.91;99632.69;3154546;28;19946;-72
2023/08/17 06:23:41;;;;;;;;;;;;;;;26.32;46.42;99628.31;3154229;28;19924;-72
2023/08/17 06:25:12;;;;;;;;;;;;;;;26.41;46.49;99642.44;3154893;28;19928;-72
2023/08/17 06:26:44;;;;;;;;;;;;;;;26.50;46.40;99631.59;3148740;28;19963;-72
2023/08/17 06:28:16;;;;;;;;;;;;;;;26.59;46.64;99629.72;3154621;28;19927;-72
2023/08/17 06:29:47;;;;;;;;;;;;;;;26.63;46.28;99635.53;3148928;28;19924;-72
2023/08/17 06:31:18;;;;;;;;;;;;;;;26.64;46.48;99631.84;3154908;28;19924;-71
2023/08/17 06:32:51;;;;;;;;;;;;;;;26.69;46.25;99642.84;3154422;28;20613;-71
2023/08/17 06:34:22;;;;;;;;;;;;;;;26.74;46.15;99632.44;3145150;28;20455;-71
2023/08/17 06:35:53;;;;;;;;;;;;;;;26.81;46.43;99636.06;3152236;28;19928;-72
2023/08/17 06:37:24;;;;;;;;;;;;;;;26.92;46.09;99638.31;3149386;28;20034;-72
2023/08/17 06:38:55;;;;;;;;;;;;;;;27.03;46.20;99639.72;3151126;28;19924;-72
2023/08/17 06:40:26;;;;;;;;;;;;;;;27.13;45.77;99637.66;3154419;28;19984;-71
2023/08/17 06:41:58;;;;;;;;;;;;;;;27.19;45.38;99636.97;3150487;28;20088;-72
2023/08/17 06:43:30;;;;;;;;;;;;;;;27.19;45.51;99636.13;3149449;28;20439;-72
2023/08/17 06:45:01;;;;;;;;;;;;;;;27.20;45.38;99635.94;3151915;28;20003;-72
2023/08/17 06:46:33;;;;;;;;;;;;;;;27.22;45.51;99641.13;3154387;28;19931;-72
2023/08/17 06:48:03;;;;;;;;;;;;;;;27.21;45.09;99634.94;3154309;28;19928;-71
2023/08/17 06:49:35;;;;;;;;;;;;;;;27.23;45.03;99632.06;3154258;28;19930;-71
2023/08/17 06:51:07;;;;;;;;;;;;;;;27.29;45.29;99641.22;3153782;28;19924;-71
2023/08/17 06:52:39;;;;;;;;;;;;;;;27.35;45.06;99637.81;3154081;28;19924;-70
2023/08/17 06:54:10;;;;;;;;;;;;;;;27.44;45.10;99634.03;3154255;28;19934;-70
2023/08/17 06:55:41;;;;;;;;;;;;;;;27.48;44.50;99638.03;3154092;28;20459;-71
2023/08/17 06:57:13;;;;;;;;;;;;;;;27.53;44.33;99637.47;3154012;28;20003;-71
2023/08/17 06:58:46;;;;;;;;;;;;;;;27.61;44.64;99632.88;3150879;28;19935;-71
2023/08/17 07:00:20;;;;;;;;;;;;;;;27.74;44.63;99631.38;3153491;28;20432;-71
2023/08/17 07:01:51;;;;;;;;;;;;;;;27.84;44.07;99630.13;3142370;28;19971;-71
2023/08/17 07:03:22;;;;;;;;;;;;;;;28.00;43.90;99639.81;3152420;28;19928;-71
2023/08/17 07:04:54;;;;;;;;;;;;;;;28.15;43.97;99636.28;3154065;28;19924;-71
2023/08/17 07:06:24;;;;;;;;;;;;;;;28.27;43.62;99627.56;3153522;28;19977;-71
2023/08/17 07:07:57;;;;;;;;;;;;;;;28.40;43.45;99626.91;3153782;28;20427;-71
2023/08/17 07:09:29;;;;;;;;;;;;;;;28.51;43.38;99631.78;3153782;28;20366;-71
2023/08/17 07:11:00;;;;;;;;;;;;;;;28.65;43.20;99632.75;3152346;28;19971;-72
2023/08/17 07:12:32;;;;;;;;;;;;;;;28.75;42.91;99627.94;3154158;28;19924;-72
2023/08/17 07:14:06;;;;;;;;;;;;;;;28.88;42.93;99626.41;3149054;28;19928;-72
2023/08/17 07:15:36;;;;;;;;;;;;;;;29.00;42.69;99633.72;3149195;28;19924;-72
2023/08/17 07:17:08;;;;;;;;;;;;;;;29.13;42.31;99634.88;3153499;28;20484;-71
2023/08/17 07:18:39;;;;;;;;;;;;;;;29.23;41.83;99630.84;3153854;28;20016;-72
2023/08/17 07:20:11;;;;;;;;;;;;;;;29.35;41.82;99631.16;3153739;28;19946;-72
2023/08/17 07:21:43;;;;;;;;;;;;;;;29.46;41.74;99635.13;3153857;28;20011;-71
2023/08/17 07:23:13;;;;;;;;;;;;;;;29.58;41.70;99633.59;3152092;28;20120;-70
2023/08/17 07:24:45;;;;;;;;;;;;;;;29.68;41.63;99635.94;3154054;28;19924;-71
2023/08/17 07:26:15;;;;;;;;;;;;;;;29.75;41.08;99628.75;3153512;28;19924;-71
2023/08/17 07:27:47;;;;;;;;;;;;;;;29.73;40.95;99630.81;3151571;28;19974;-71
2023/08/17 07:29:19;;;;;;;;;;;;;;;29.75;40.78;99630.59;3151803;28;19985;-72
2023/08/17 07:30:51;;;;;;;;;;;;;;;29.82;40.61;99623.44;3142643;28;19934;-71
2023/08/17 07:32:21;;;;;;;;;;;;;;;29.93;40.74;99625.53;3149688;28;19961;-71
2023/08/17 07:33:53;;;;;;;;;;;;;;;30.00;40.65;99631.78;3153515;28;20350;-72
2023/08/17 07:35:25;;;;;;;;;;;;;;;30.11;40.43;99623.16;3153498;28;20409;-71
2023/08/17 07:36:55;;;;;;;;;;;;;;;30.26;40.46;99630.25;3152535;28;20404;-71
2023/08/17 07:38:27;;;;;;;;;;;;;;;30.39;40.22;99627.63;3146466;28;19982;-72
2023/08/17 07:39:57;;;;;;;;;;;;;;;30.50;40.02;99627.03;3153714;28;19924;-72
2023/08/17 07:41:29;;;;;;;;;;;;;;;30.66;39.78;99633.06;3149107;28;19980;-72
2023/08/17 07:43:00;;;;;;;;;;;;;;;30.78;39.76;99629.56;3147606;28;20731;-72
2023/08/17 07:44:34;;;;;;;;;;;;;;;30.91;39.28;99631.47;3142905;28;19930;-72
2023/08/17 07:46:06;;;;;;;;;;;;;;;31.05;38.65;99629.59;3152959;28;19977;-72
2023/08/17 07:47:37;;;;;;;;;;;;;;;31.12;37.92;99634.97;3151628;28;20005;-72
2023/08/17 07:49:08;;;;;;;;;;;;;;;31.11;37.65;99628.78;3153485;28;20419;-72
2023/08/17 07:50:39;;;;;;;;;;;;;;;31.14;37.79;99632.91;3153597;28;19931;-72
2023/08/17 07:52:10;;;;;;;;;;;;;;;31.23;38.25;99631.66;3153471;28;20677;-72
2023/08/17 07:53:41;;;;;;;;;;;;;;;31.37;38.10;99624.44;3153060;28;19963;-72
2023/08/17 07:55:13;;;;;;;;;;;;;;;31.53;38.01;99625.88;3153562;28;20014;-72
2023/08/17 07:56:44;;;;;;;;;;;;;;;31.69;37.84;99614.66;3153254;28;19928;-72